sensor_id;sensor_type;location;lat;lon;timestamp;temperature;humidity
30069;DHT22;16894;49.456;10.644;2023-02-01T00:01:59;3.70;99.90
30069;DHT22;16894;49.456;10.644;2023-02-01T00:04:25;3.80;99.90
30069;DHT22;16894;49.456;10.644;2023-02-01T00:06:51;3.80;99.90
30069;DHT22;16894;49.456;10.644;2023-02-01T00:09:17;3.70;99.90
30069;DHT22;16894;49.456;10.644;2023-02-01T00:11:43;3.70;99.90
30069;DHT22;16894;49.456;10.644;2023-02-01T00:14:09;3.70;99.90
30069;DHT22;16894;49.456;10.644;2023-02-01T00:16:35;3.80;99.90
30069;DHT22;16894;49.456;10.644;2023-02-01T00:19:18;3.80;99.90
30069;DHT22;16894;49.456;10.644;2023-02-01T00:21:44;3.80;99.90
30069;DHT22;16894;49.456;10.644;2023-02-01T00:24:11;3.80;99.90
30069;DHT22;16894;49.456;10.644;2023-02-01T00:26:38;3.80;99.90
30069;DHT22;16894;49.456;10.644;2023-02-01T00:29:08;3.80;99.90
30069;DHT22;16894;49.456;10.644;2023-02-01T00:31:34;3.80;99.90
30069;DHT22;16894;49.456;10.644;2023-02-01T00:34:00;3.70;99.90
30069;DHT22;16894;49.456;10.644;2023-02-01T00:36:25;3.70;99.90
30069;DHT22;16894;49.456;10.644;2023-02-01T00:38:51;3.70;99.90
30069;DHT22;16894;49.456;10.644;2023-02-01T00:41:19;3.70;99.90
30069;DHT22;16894;49.456;10.644;2023-02-01T00:43:45;3.80;99.90
30069;DHT22;16894;49.456;10.644;2023-02-01T00:46:11;3.80;99.90
30069;DHT22;16894;49.456;10.644;2023-02-01T00:48:38;3.80;99.90
30069;DHT22;16894;49.456;10.644;2023-02-01T00:51:09;3.80;99.90
30069;DHT22;16894;49.456;10.644;2023-02-01T00:53:35;3.80;99.90
30069;DHT22;16894;49.456;10.644;2023-02-01T00:56:01;3.70;99.90
30069;DHT22;16894;49.456;10.644;2023-02-01T00:58:27;3.70;99.90
30069;DHT22;16894;49.456;10.644;2023-02-01T01:03:33;3.70;99.90
30069;DHT22;16894;49.456;10.644;2023-02-01T01:06:01;3.70;99.90
30069;DHT22;16894;49.456;10.644;2023-02-01T01:08:27;3.80;99.90
30069;DHT22;16894;49.456;10.644;2023-02-01T01:10:53;3.80;99.90
30069;DHT22;16894;49.456;10.644;2023-02-01T01:13:19;3.70;99.90
30069;DHT22;16894;49.456;10.644;2023-02-01T01:15:44;3.70;99.90
30069;DHT22;16894;49.456;10.644;2023-02-01T01:18:10;3.70;99.90
30069;DHT22;16894;49.456;10.644;2023-02-01T01:20:38;3.70;99.90
30069;DHT22;16894;49.456;10.644;2023-02-01T01:23:04;3.80;99.90
30069;DHT22;16894;49.456;10.644;2023-02-01T01:25:31;3.80;99.90
30069;DHT22;16894;49.456;10.644;2023-02-01T01:27:56;3.70;99.90
30069;DHT22;16894;49.456;10.644;2023-02-01T01:30:22;3.80;99.90
30069;DHT22;16894;49.456;10.644;2023-02-01T01:32:48;3.80;99.90
30069;DHT22;16894;49.456;10.644;2023-02-01T01:35:14;3.70;99.90
30069;DHT22;16894;49.456;10.644;2023-02-01T01:37:39;3.80;99.90
30069;DHT22;16894;49.456;10.644;2023-02-01T01:40:06;3.80;99.90
30069;DHT22;16894;49.456;10.644;2023-02-01T01:42:40;3.80;99.90
30069;DHT22;16894;49.456;10.644;2023-02-01T01:45:25;3.80;99.90
30069;DHT22;16894;49.456;10.644;2023-02-01T01:50:35;3.70;99.90
30069;DHT22;16894;49.456;10.644;2023-02-01T01:53:03;3.80;99.90
30069;DHT22;16894;49.456;10.644;2023-02-01T01:55:32;3.70;99.90
30069;DHT22;16894;49.456;10.644;2023-02-01T01:58:05;3.70;99.90
30069;DHT22;16894;49.456;10.644;2023-02-01T02:00:32;3.80;99.90
30069;DHT22;16894;49.456;10.644;2023-02-01T02:03:03;3.80;99.90
30069;DHT22;16894;49.456;10.644;2023-02-01T02:05:31;3.80;99.90
30069;DHT22;16894;49.456;10.644;2023-02-01T02:07:59;3.80;99.90
30069;DHT22;16894;49.456;10.644;2023-02-01T02:10:26;3.80;99.90
30069;DHT22;16894;49.456;10.644;2023-02-01T02:13:13;3.90;99.90
30069;DHT22;16894;49.456;10.644;2023-02-01T02:15:45;3.90;99.90
30069;DHT22;16894;49.456;10.644;2023-02-01T02:18:42;3.90;99.90
30069;DHT22;16894;49.456;10.644;2023-02-01T02:21:15;3.90;99.90
30069;DHT22;16894;49.456;10.644;2023-02-01T02:26:23;3.90;99.90
30069;DHT22;16894;49.456;10.644;2023-02-01T02:37:08;3.80;99.90
30069;DHT22;16894;49.456;10.644;2023-02-01T02:45:44;3.70;99.90
30069;DHT22;16894;49.456;10.644;2023-02-01T02:51:15;3.70;99.90
30069;DHT22;16894;49.456;10.644;2023-02-01T02:54:08;3.70;99.90
30069;DHT22;16894;49.456;10.644;2023-02-01T02:56:56;3.70;99.90
30069;DHT22;16894;49.456;10.644;2023-02-01T02:59:44;3.70;99.90
30069;DHT22;16894;49.456;10.644;2023-02-01T03:02:29;3.70;99.90
30069;DHT22;16894;49.456;10.644;2023-02-01T03:05:14;3.70;99.90
30069;DHT22;16894;49.456;10.644;2023-02-01T03:11:15;3.70;99.90
30069;DHT22;16894;49.456;10.644;2023-02-01T03:16:02;3.70;99.90
30069;DHT22;16894;49.456;10.644;2023-02-01T03:21:00;3.80;99.90
30069;DHT22;16894;49.456;10.644;2023-02-01T03:23:31;3.80;99.90
30069;DHT22;16894;49.456;10.644;2023-02-01T03:26:01;3.80;99.90
30069;DHT22;16894;49.456;10.644;2023-02-01T03:28:29;3.80;99.90
30069;DHT22;16894;49.456;10.644;2023-02-01T03:30:57;3.90;99.90
30069;DHT22;16894;49.456;10.644;2023-02-01T03:33:25;3.90;99.90
30069;DHT22;16894;49.456;10.644;2023-02-01T03:36:15;3.90;99.90
30069;DHT22;16894;49.456;10.644;2023-02-01T03:39:08;3.90;99.90
30069;DHT22;16894;49.456;10.644;2023-02-01T03:41:45;3.90;99.90
30069;DHT22;16894;49.456;10.644;2023-02-01T03:44:23;3.90;99.90
30069;DHT22;16894;49.456;10.644;2023-02-01T03:46:54;3.90;99.90
30069;DHT22;16894;49.456;10.644;2023-02-01T03:49:32;3.90;99.90
30069;DHT22;16894;49.456;10.644;2023-02-01T03:51:59;3.90;99.90
30069;DHT22;16894;49.456;10.644;2023-02-01T03:54:27;3.90;99.90
30069;DHT22;16894;49.456;10.644;2023-02-01T03:56:55;4.00;99.90
30069;DHT22;16894;49.456;10.644;2023-02-01T03:59:22;4.00;99.90
30069;DHT22;16894;49.456;10.644;2023-02-01T04:01:47;4.00;99.90
30069;DHT22;16894;49.456;10.644;2023-02-01T04:04:13;4.00;99.90
30069;DHT22;16894;49.456;10.644;2023-02-01T04:06:49;4.00;99.90
30069;DHT22;16894;49.456;10.644;2023-02-01T04:09:16;3.90;99.90
30069;DHT22;16894;49.456;10.644;2023-02-01T04:11:44;4.00;99.90
30069;DHT22;16894;49.456;10.644;2023-02-01T04:14:10;4.00;99.90
30069;DHT22;16894;49.456;10.644;2023-02-01T04:16:35;4.00;99.90
30069;DHT22;16894;49.456;10.644;2023-02-01T04:19:02;4.00;99.90
30069;DHT22;16894;49.456;10.644;2023-02-01T04:21:27;4.00;99.90
30069;DHT22;16894;49.456;10.644;2023-02-01T04:23:53;4.00;99.90
30069;DHT22;16894;49.456;10.644;2023-02-01T04:26:20;4.00;99.90
30069;DHT22;16894;49.456;10.644;2023-02-01T04:28:47;4.00;99.90
30069;DHT22;16894;49.456;10.644;2023-02-01T04:31:14;3.90;99.90
30069;DHT22;16894;49.456;10.644;2023-02-01T04:33:40;3.90;99.90
30069;DHT22;16894;49.456;10.644;2023-02-01T04:36:05;3.90;99.90
30069;DHT22;16894;49.456;10.644;2023-02-01T04:38:31;3.80;99.90
30069;DHT22;16894;49.456;10.644;2023-02-01T04:40:58;3.80;99.90
30069;DHT22;16894;49.456;10.644;2023-02-01T04:43:24;3.70;99.90
30069;DHT22;16894;49.456;10.644;2023-02-01T04:45:50;3.70;99.90
30069;DHT22;16894;49.456;10.644;2023-02-01T04:48:16;3.70;99.90
30069;DHT22;16894;49.456;10.644;2023-02-01T04:50:43;3.70;99.90
30069;DHT22;16894;49.456;10.644;2023-02-01T04:53:10;3.70;99.90
30069;DHT22;16894;49.456;10.644;2023-02-01T04:55:37;3.80;99.90
30069;DHT22;16894;49.456;10.644;2023-02-01T04:58:02;3.70;99.90
30069;DHT22;16894;49.456;10.644;2023-02-01T05:00:28;3.70;99.90
30069;DHT22;16894;49.456;10.644;2023-02-01T05:02:53;3.70;99.90
30069;DHT22;16894;49.456;10.644;2023-02-01T05:05:19;3.70;99.90
30069;DHT22;16894;49.456;10.644;2023-02-01T05:07:45;3.70;99.90
30069;DHT22;16894;49.456;10.644;2023-02-01T05:10:11;3.80;99.90
30069;DHT22;16894;49.456;10.644;2023-02-01T05:12:37;3.70;99.90
30069;DHT22;16894;49.456;10.644;2023-02-01T05:15:21;3.80;99.90
30069;DHT22;16894;49.456;10.644;2023-02-01T05:17:47;3.80;99.90
30069;DHT22;16894;49.456;10.644;2023-02-01T05:20:12;3.80;99.90
30069;DHT22;16894;49.456;10.644;2023-02-01T05:22:38;3.80;99.90
30069;DHT22;16894;49.456;10.644;2023-02-01T05:25:04;3.80;99.90
30069;DHT22;16894;49.456;10.644;2023-02-01T05:27:30;3.80;99.90
30069;DHT22;16894;49.456;10.644;2023-02-01T05:29:56;3.80;99.90
30069;DHT22;16894;49.456;10.644;2023-02-01T05:32:22;3.70;99.90
30069;DHT22;16894;49.456;10.644;2023-02-01T05:34:47;3.70;99.90
30069;DHT22;16894;49.456;10.644;2023-02-01T05:37:13;3.70;99.90
30069;DHT22;16894;49.456;10.644;2023-02-01T05:39:39;3.60;99.90
30069;DHT22;16894;49.456;10.644;2023-02-01T05:42:04;3.60;99.90
30069;DHT22;16894;49.456;10.644;2023-02-01T05:44:33;3.50;99.90
30069;DHT22;16894;49.456;10.644;2023-02-01T05:46:59;3.50;99.90
30069;DHT22;16894;49.456;10.644;2023-02-01T05:49:24;3.40;99.90
30069;DHT22;16894;49.456;10.644;2023-02-01T05:51:50;3.30;99.90
30069;DHT22;16894;49.456;10.644;2023-02-01T05:54:15;3.30;99.90
30069;DHT22;16894;49.456;10.644;2023-02-01T05:56:41;3.30;99.90
30069;DHT22;16894;49.456;10.644;2023-02-01T05:59:07;3.20;99.90
30069;DHT22;16894;49.456;10.644;2023-02-01T06:01:33;3.20;99.90
30069;DHT22;16894;49.456;10.644;2023-02-01T06:03:58;3.10;99.90
30069;DHT22;16894;49.456;10.644;2023-02-01T06:06:24;3.10;99.90
30069;DHT22;16894;49.456;10.644;2023-02-01T06:08:49;3.00;99.90
30069;DHT22;16894;49.456;10.644;2023-02-01T06:11:15;3.00;99.90
30069;DHT22;16894;49.456;10.644;2023-02-01T06:13:41;3.00;99.90
30069;DHT22;16894;49.456;10.644;2023-02-01T06:16:06;3.00;99.90
30069;DHT22;16894;49.456;10.644;2023-02-01T06:18:34;2.90;99.90
30069;DHT22;16894;49.456;10.644;2023-02-01T06:21:00;2.90;99.90
30069;DHT22;16894;49.456;10.644;2023-02-01T06:23:26;2.90;99.90
30069;DHT22;16894;49.456;10.644;2023-02-01T06:25:58;2.90;99.90
30069;DHT22;16894;49.456;10.644;2023-02-01T06:28:24;2.90;99.90
30069;DHT22;16894;49.456;10.644;2023-02-01T06:30:50;2.80;99.90
30069;DHT22;16894;49.456;10.644;2023-02-01T06:33:16;2.80;99.90
30069;DHT22;16894;49.456;10.644;2023-02-01T06:35:42;2.80;99.90
30069;DHT22;16894;49.456;10.644;2023-02-01T06:38:13;2.90;99.90
30069;DHT22;16894;49.456;10.644;2023-02-01T06:40:39;2.80;99.90
30069;DHT22;16894;49.456;10.644;2023-02-01T06:43:05;2.90;99.90
30069;DHT22;16894;49.456;10.644;2023-02-01T06:45:31;2.90;99.90
30069;DHT22;16894;49.456;10.644;2023-02-01T06:47:57;3.00;99.90
30069;DHT22;16894;49.456;10.644;2023-02-01T06:50:23;3.10;99.90
30069;DHT22;16894;49.456;10.644;2023-02-01T06:52:49;3.20;99.90
30069;DHT22;16894;49.456;10.644;2023-02-01T06:55:14;3.20;99.90
30069;DHT22;16894;49.456;10.644;2023-02-01T06:57:40;3.30;99.90
30069;DHT22;16894;49.456;10.644;2023-02-01T07:00:06;3.40;99.90
30069;DHT22;16894;49.456;10.644;2023-02-01T07:02:32;3.40;99.90
30069;DHT22;16894;49.456;10.644;2023-02-01T07:04:57;3.40;99.90
30069;DHT22;16894;49.456;10.644;2023-02-01T07:07:23;3.50;99.90
30069;DHT22;16894;49.456;10.644;2023-02-01T07:09:49;3.50;99.90
30069;DHT22;16894;49.456;10.644;2023-02-01T07:12:15;3.50;99.90
30069;DHT22;16894;49.456;10.644;2023-02-01T07:14:41;3.50;99.90
30069;DHT22;16894;49.456;10.644;2023-02-01T07:17:07;3.50;99.90
30069;DHT22;16894;49.456;10.644;2023-02-01T07:19:32;3.60;99.90
30069;DHT22;16894;49.456;10.644;2023-02-01T07:21:58;3.60;99.90
30069;DHT22;16894;49.456;10.644;2023-02-01T07:24:24;3.60;99.90
30069;DHT22;16894;49.456;10.644;2023-02-01T07:26:49;3.60;99.90
30069;DHT22;16894;49.456;10.644;2023-02-01T07:29:17;3.60;99.90
30069;DHT22;16894;49.456;10.644;2023-02-01T07:31:42;3.60;99.90
30069;DHT22;16894;49.456;10.644;2023-02-01T07:34:08;3.60;99.90
30069;DHT22;16894;49.456;10.644;2023-02-01T07:36:34;3.70;99.90
30069;DHT22;16894;49.456;10.644;2023-02-01T07:39:02;3.70;99.90
30069;DHT22;16894;49.456;10.644;2023-02-01T07:41:28;3.70;99.90
30069;DHT22;16894;49.456;10.644;2023-02-01T07:43:53;3.80;99.90
30069;DHT22;16894;49.456;10.644;2023-02-01T07:46:19;3.80;99.90
30069;DHT22;16894;49.456;10.644;2023-02-01T07:48:45;3.80;99.90
30069;DHT22;16894;49.456;10.644;2023-02-01T07:51:16;3.80;99.90
30069;DHT22;16894;49.456;10.644;2023-02-01T07:53:44;3.80;99.90
30069;DHT22;16894;49.456;10.644;2023-02-01T07:56:13;3.80;99.90
30069;DHT22;16894;49.456;10.644;2023-02-01T07:58:39;3.80;99.90
30069;DHT22;16894;49.456;10.644;2023-02-01T08:01:05;3.90;99.90
30069;DHT22;16894;49.456;10.644;2023-02-01T08:03:51;4.00;99.90
30069;DHT22;16894;49.456;10.644;2023-02-01T08:06:17;4.00;99.90
30069;DHT22;16894;49.456;10.644;2023-02-01T08:08:45;4.00;99.90
30069;DHT22;16894;49.456;10.644;2023-02-01T08:11:13;4.10;99.90
30069;DHT22;16894;49.456;10.644;2023-02-01T08:13:39;4.00;99.90
30069;DHT22;16894;49.456;10.644;2023-02-01T08:16:06;4.10;99.90
30069;DHT22;16894;49.456;10.644;2023-02-01T08:18:33;4.20;99.90
30069;DHT22;16894;49.456;10.644;2023-02-01T08:21:25;4.20;99.90
30069;DHT22;16894;49.456;10.644;2023-02-01T08:23:49;4.30;99.90
30069;DHT22;16894;49.456;10.644;2023-02-01T08:26:18;4.40;99.90
30069;DHT22;16894;49.456;10.644;2023-02-01T08:28:47;4.50;99.90
30069;DHT22;16894;49.456;10.644;2023-02-01T08:31:15;4.60;99.90
30069;DHT22;16894;49.456;10.644;2023-02-01T08:33:42;4.70;99.90
30069;DHT22;16894;49.456;10.644;2023-02-01T08:36:10;4.80;99.90
30069;DHT22;16894;49.456;10.644;2023-02-01T08:38:38;4.80;99.90
30069;DHT22;16894;49.456;10.644;2023-02-01T08:41:10;4.80;99.90
30069;DHT22;16894;49.456;10.644;2023-02-01T08:43:36;4.80;99.90
30069;DHT22;16894;49.456;10.644;2023-02-01T08:46:03;4.60;99.90
30069;DHT22;16894;49.456;10.644;2023-02-01T08:48:29;4.60;99.90
30069;DHT22;16894;49.456;10.644;2023-02-01T08:50:54;4.60;99.90
30069;DHT22;16894;49.456;10.644;2023-02-01T08:53:20;4.50;99.90
30069;DHT22;16894;49.456;10.644;2023-02-01T08:55:46;4.30;99.90
30069;DHT22;16894;49.456;10.644;2023-02-01T08:58:13;4.20;99.90
30069;DHT22;16894;49.456;10.644;2023-02-01T09:00:40;4.00;99.90
30069;DHT22;16894;49.456;10.644;2023-02-01T09:03:07;4.10;99.90
30069;DHT22;16894;49.456;10.644;2023-02-01T09:05:34;4.20;99.90
30069;DHT22;16894;49.456;10.644;2023-02-01T09:08:00;4.10;99.90
30069;DHT22;16894;49.456;10.644;2023-02-01T09:10:26;4.10;99.90
30069;DHT22;16894;49.456;10.644;2023-02-01T09:12:51;4.10;99.90
30069;DHT22;16894;49.456;10.644;2023-02-01T09:15:17;4.10;99.90
30069;DHT22;16894;49.456;10.644;2023-02-01T09:17:43;4.10;99.90
30069;DHT22;16894;49.456;10.644;2023-02-01T09:20:09;4.00;99.90
30069;DHT22;16894;49.456;10.644;2023-02-01T09:22:35;4.00;99.90
30069;DHT22;16894;49.456;10.644;2023-02-01T09:25:00;3.90;99.90
30069;DHT22;16894;49.456;10.644;2023-02-01T09:27:26;3.80;99.90
30069;DHT22;16894;49.456;10.644;2023-02-01T09:29:51;3.70;99.90
30069;DHT22;16894;49.456;10.644;2023-02-01T09:32:21;3.60;99.90
30069;DHT22;16894;49.456;10.644;2023-02-01T09:34:51;3.70;99.90
30069;DHT22;16894;49.456;10.644;2023-02-01T09:37:17;3.80;99.90
30069;DHT22;16894;49.456;10.644;2023-02-01T09:39:43;3.90;99.90
30069;DHT22;16894;49.456;10.644;2023-02-01T09:45:11;4.60;99.90
30069;DHT22;16894;49.456;10.644;2023-02-01T09:47:46;4.60;99.90
30069;DHT22;16894;49.456;10.644;2023-02-01T09:50:17;4.70;99.90
30069;DHT22;16894;49.456;10.644;2023-02-01T09:53:40;4.70;99.90
30069;DHT22;16894;49.456;10.644;2023-02-01T09:55:50;4.80;99.90
30069;DHT22;16894;49.456;10.644;2023-02-01T09:58:24;5.00;99.90
30069;DHT22;16894;49.456;10.644;2023-02-01T10:00:58;5.00;99.90
30069;DHT22;16894;49.456;10.644;2023-02-01T10:03:30;5.10;99.90
30069;DHT22;16894;49.456;10.644;2023-02-01T10:06:21;5.30;99.90
30069;DHT22;16894;49.456;10.644;2023-02-01T10:17:20;5.80;99.90
30069;DHT22;16894;49.456;10.644;2023-02-01T10:22:43;6.00;99.90
30069;DHT22;16894;49.456;10.644;2023-02-01T10:25:41;6.00;99.90
30069;DHT22;16894;49.456;10.644;2023-02-01T10:28:16;6.10;99.90
30069;DHT22;16894;49.456;10.644;2023-02-01T10:30:46;6.10;99.90
30069;DHT22;16894;49.456;10.644;2023-02-01T10:33:19;6.10;99.90
30069;DHT22;16894;49.456;10.644;2023-02-01T10:35:55;6.10;99.90
30069;DHT22;16894;49.456;10.644;2023-02-01T10:38:29;6.10;99.90
30069;DHT22;16894;49.456;10.644;2023-02-01T10:41:18;6.20;99.90
30069;DHT22;16894;49.456;10.644;2023-02-01T10:43:43;6.50;99.90
30069;DHT22;16894;49.456;10.644;2023-02-01T10:46:10;6.60;99.90
30069;DHT22;16894;49.456;10.644;2023-02-01T10:48:36;6.60;99.90
30069;DHT22;16894;49.456;10.644;2023-02-01T10:51:12;6.60;99.90
30069;DHT22;16894;49.456;10.644;2023-02-01T10:53:50;6.50;99.90
30069;DHT22;16894;49.456;10.644;2023-02-01T10:56:24;6.30;99.90
30069;DHT22;16894;49.456;10.644;2023-02-01T10:58:50;6.00;99.90
30069;DHT22;16894;49.456;10.644;2023-02-01T11:01:21;5.80;99.90
30069;DHT22;16894;49.456;10.644;2023-02-01T11:04:03;5.60;99.90
30069;DHT22;16894;49.456;10.644;2023-02-01T11:11:55;5.40;99.90
30069;DHT22;16894;49.456;10.644;2023-02-01T11:20:00;5.30;99.90
30069;DHT22;16894;49.456;10.644;2023-02-01T11:22:58;5.30;99.90
30069;DHT22;16894;49.456;10.644;2023-02-01T11:26:10;5.20;99.90
30069;DHT22;16894;49.456;10.644;2023-02-01T11:29:04;5.20;99.90
30069;DHT22;16894;49.456;10.644;2023-02-01T11:31:52;5.20;99.90
30069;DHT22;16894;49.456;10.644;2023-02-01T11:34:40;5.20;99.90
30069;DHT22;16894;49.456;10.644;2023-02-01T11:37:29;5.10;99.90
30069;DHT22;16894;49.456;10.644;2023-02-01T11:40:23;5.20;99.90
30069;DHT22;16894;49.456;10.644;2023-02-01T11:46:02;5.20;99.90
30069;DHT22;16894;49.456;10.644;2023-02-01T11:48:46;5.20;99.90
30069;DHT22;16894;49.456;10.644;2023-02-01T11:52:05;5.20;99.90
30069;DHT22;16894;49.456;10.644;2023-02-01T12:05:14;5.40;99.90
30069;DHT22;16894;49.456;10.644;2023-02-01T12:23:30;5.40;99.90
30069;DHT22;16894;49.456;10.644;2023-02-01T12:26:44;5.40;99.90
30069;DHT22;16894;49.456;10.644;2023-02-01T12:36:10;5.50;99.90
30069;DHT22;16894;49.456;10.644;2023-02-01T12:41:26;5.30;99.90
30069;DHT22;16894;49.456;10.644;2023-02-01T12:44:01;5.20;99.90
30069;DHT22;16894;49.456;10.644;2023-02-01T12:46:31;5.00;99.90
30069;DHT22;16894;49.456;10.644;2023-02-01T12:49:05;4.80;99.90
30069;DHT22;16894;49.456;10.644;2023-02-01T12:51:59;4.70;99.90
30069;DHT22;16894;49.456;10.644;2023-02-01T12:55:00;4.60;99.90
30069;DHT22;16894;49.456;10.644;2023-02-01T12:58:09;4.50;99.90
30069;DHT22;16894;49.456;10.644;2023-02-01T13:00:59;4.50;99.90
30069;DHT22;16894;49.456;10.644;2023-02-01T13:04:02;4.50;99.90
30069;DHT22;16894;49.456;10.644;2023-02-01T13:09:57;4.70;99.90
30069;DHT22;16894;49.456;10.644;2023-02-01T13:15:39;4.90;99.90
30069;DHT22;16894;49.456;10.644;2023-02-01T13:18:27;5.00;99.90
30069;DHT22;16894;49.456;10.644;2023-02-01T13:21:22;5.00;99.90
30069;DHT22;16894;49.456;10.644;2023-02-01T13:24:30;5.00;99.90
30069;DHT22;16894;49.456;10.644;2023-02-01T13:27:17;5.00;99.90
30069;DHT22;16894;49.456;10.644;2023-02-01T13:30:22;5.00;99.90
30069;DHT22;16894;49.456;10.644;2023-02-01T13:36:25;5.00;99.90
30069;DHT22;16894;49.456;10.644;2023-02-01T13:44:32;4.80;99.90
30069;DHT22;16894;49.456;10.644;2023-02-01T13:47:02;4.90;99.90
30069;DHT22;16894;49.456;10.644;2023-02-01T13:49:37;4.90;99.90
30069;DHT22;16894;49.456;10.644;2023-02-01T13:52:04;5.00;99.90
30069;DHT22;16894;49.456;10.644;2023-02-01T13:54:37;5.10;99.90
30069;DHT22;16894;49.456;10.644;2023-02-01T13:57:06;5.10;99.90
30069;DHT22;16894;49.456;10.644;2023-02-01T14:05:04;5.70;99.90
30069;DHT22;16894;49.456;10.644;2023-02-01T14:07:33;5.80;99.90
30069;DHT22;16894;49.456;10.644;2023-02-01T14:13:04;5.90;99.90
30069;DHT22;16894;49.456;10.644;2023-02-01T14:15:30;5.90;99.90
30069;DHT22;16894;49.456;10.644;2023-02-01T14:17:56;5.90;99.90
30069;DHT22;16894;49.456;10.644;2023-02-01T14:20:41;5.70;99.90
30069;DHT22;16894;49.456;10.644;2023-02-01T14:23:15;5.50;99.90
30069;DHT22;16894;49.456;10.644;2023-02-01T14:25:41;5.50;99.90
30069;DHT22;16894;49.456;10.644;2023-02-01T14:28:12;5.40;99.90
30069;DHT22;16894;49.456;10.644;2023-02-01T14:30:44;5.30;99.90
30069;DHT22;16894;49.456;10.644;2023-02-01T14:33:20;5.20;99.90
30069;DHT22;16894;49.456;10.644;2023-02-01T14:36:04;5.10;99.90
30069;DHT22;16894;49.456;10.644;2023-02-01T14:38:32;5.10;99.90
30069;DHT22;16894;49.456;10.644;2023-02-01T14:41:35;5.00;99.90
30069;DHT22;16894;49.456;10.644;2023-02-01T14:49:58;5.00;99.90
30069;DHT22;16894;49.456;10.644;2023-02-01T14:52:37;5.00;99.90
30069;DHT22;16894;49.456;10.644;2023-02-01T14:56:12;5.00;99.90
30069;DHT22;16894;49.456;10.644;2023-02-01T15:00:54;5.00;99.90
30069;DHT22;16894;49.456;10.644;2023-02-01T15:05:58;5.00;99.90
30069;DHT22;16894;49.456;10.644;2023-02-01T15:08:37;5.00;99.90
30069;DHT22;16894;49.456;10.644;2023-02-01T15:11:11;5.10;99.90
30069;DHT22;16894;49.456;10.644;2023-02-01T15:13:39;5.10;99.90
30069;DHT22;16894;49.456;10.644;2023-02-01T15:16:13;5.00;99.90
30069;DHT22;16894;49.456;10.644;2023-02-01T15:18:39;5.00;99.90
30069;DHT22;16894;49.456;10.644;2023-02-01T15:21:06;5.00;99.90
30069;DHT22;16894;49.456;10.644;2023-02-01T15:23:33;5.00;99.90
30069;DHT22;16894;49.456;10.644;2023-02-01T15:25:59;5.10;99.90
30069;DHT22;16894;49.456;10.644;2023-02-01T15:28:25;5.00;99.90
30069;DHT22;16894;49.456;10.644;2023-02-01T15:33:19;5.00;99.90
30069;DHT22;16894;49.456;10.644;2023-02-01T15:36:10;5.00;99.90
30069;DHT22;16894;49.456;10.644;2023-02-01T15:38:41;5.00;99.90
30069;DHT22;16894;49.456;10.644;2023-02-01T15:46:41;5.00;99.90
30069;DHT22;16894;49.456;10.644;2023-02-01T15:49:37;5.10;99.90
30069;DHT22;16894;49.456;10.644;2023-02-01T15:54:59;5.00;99.90
30069;DHT22;16894;49.456;10.644;2023-02-01T15:57:34;5.00;99.90
30069;DHT22;16894;49.456;10.644;2023-02-01T16:00:04;4.90;99.90
30069;DHT22;16894;49.456;10.644;2023-02-01T16:02:42;4.90;99.90
30069;DHT22;16894;49.456;10.644;2023-02-01T16:05:35;4.90;99.90
30069;DHT22;16894;49.456;10.644;2023-02-01T16:08:26;4.90;99.90
30069;DHT22;16894;49.456;10.644;2023-02-01T16:10:54;4.80;99.90
30069;DHT22;16894;49.456;10.644;2023-02-01T16:13:20;4.80;99.90
30069;DHT22;16894;49.456;10.644;2023-02-01T16:15:47;4.80;99.90
30069;DHT22;16894;49.456;10.644;2023-02-01T16:18:14;4.80;99.90
30069;DHT22;16894;49.456;10.644;2023-02-01T16:20:41;4.90;99.90
30069;DHT22;16894;49.456;10.644;2023-02-01T16:23:08;4.90;99.90
30069;DHT22;16894;49.456;10.644;2023-02-01T16:25:34;4.90;99.90
30069;DHT22;16894;49.456;10.644;2023-02-01T16:28:00;4.90;99.90
30069;DHT22;16894;49.456;10.644;2023-02-01T16:30:26;4.90;99.90
30069;DHT22;16894;49.456;10.644;2023-02-01T16:32:53;4.80;99.90
30069;DHT22;16894;49.456;10.644;2023-02-01T16:35:37;4.80;99.90
30069;DHT22;16894;49.456;10.644;2023-02-01T16:38:11;4.90;99.90
30069;DHT22;16894;49.456;10.644;2023-02-01T16:40:42;4.90;99.90
30069;DHT22;16894;49.456;10.644;2023-02-01T16:43:15;4.80;99.90
30069;DHT22;16894;49.456;10.644;2023-02-01T16:45:42;4.80;99.90
30069;DHT22;16894;49.456;10.644;2023-02-01T16:48:22;4.90;99.90
30069;DHT22;16894;49.456;10.644;2023-02-01T16:50:51;4.90;99.90
30069;DHT22;16894;49.456;10.644;2023-02-01T16:53:18;4.90;99.90
30069;DHT22;16894;49.456;10.644;2023-02-01T16:55:44;4.90;99.90
30069;DHT22;16894;49.456;10.644;2023-02-01T16:58:12;5.00;99.90
30069;DHT22;16894;49.456;10.644;2023-02-01T17:00:37;5.00;99.90
30069;DHT22;16894;49.456;10.644;2023-02-01T17:03:04;5.00;99.90
30069;DHT22;16894;49.456;10.644;2023-02-01T17:05:34;5.00;99.90
30069;DHT22;16894;49.456;10.644;2023-02-01T17:08:03;5.00;99.90
30069;DHT22;16894;49.456;10.644;2023-02-01T17:10:29;5.00;99.90
30069;DHT22;16894;49.456;10.644;2023-02-01T17:12:55;5.00;99.90
30069;DHT22;16894;49.456;10.644;2023-02-01T17:15:23;5.00;99.90
30069;DHT22;16894;49.456;10.644;2023-02-01T17:18:13;5.00;99.90
30069;DHT22;16894;49.456;10.644;2023-02-01T17:20:41;5.00;99.90
30069;DHT22;16894;49.456;10.644;2023-02-01T17:23:07;5.00;99.90
30069;DHT22;16894;49.456;10.644;2023-02-01T17:25:32;5.00;99.90
30069;DHT22;16894;49.456;10.644;2023-02-01T17:27:58;5.00;99.90
30069;DHT22;16894;49.456;10.644;2023-02-01T17:30:24;5.00;99.90
30069;DHT22;16894;49.456;10.644;2023-02-01T17:32:50;5.10;99.90
30069;DHT22;16894;49.456;10.644;2023-02-01T17:35:19;5.10;99.90
30069;DHT22;16894;49.456;10.644;2023-02-01T17:37:45;5.10;99.90
30069;DHT22;16894;49.456;10.644;2023-02-01T17:40:30;5.00;99.90
30069;DHT22;16894;49.456;10.644;2023-02-01T17:42:56;5.00;99.90
30069;DHT22;16894;49.456;10.644;2023-02-01T17:48:05;5.10;99.90
30069;DHT22;16894;49.456;10.644;2023-02-01T17:50:34;5.10;99.90
30069;DHT22;16894;49.456;10.644;2023-02-01T17:53:00;5.10;99.90
30069;DHT22;16894;49.456;10.644;2023-02-01T17:55:27;5.10;99.90
30069;DHT22;16894;49.456;10.644;2023-02-01T17:57:53;5.10;99.90
30069;DHT22;16894;49.456;10.644;2023-02-01T18:00:20;5.00;99.90
30069;DHT22;16894;49.456;10.644;2023-02-01T18:02:46;5.00;99.90
30069;DHT22;16894;49.456;10.644;2023-02-01T18:05:28;5.00;99.90
30069;DHT22;16894;49.456;10.644;2023-02-01T18:07:56;5.10;99.90
30069;DHT22;16894;49.456;10.644;2023-02-01T18:10:21;5.10;99.90
30069;DHT22;16894;49.456;10.644;2023-02-01T18:12:47;5.10;99.90
30069;DHT22;16894;49.456;10.644;2023-02-01T18:15:18;5.20;99.90
30069;DHT22;16894;49.456;10.644;2023-02-01T18:17:45;5.20;99.90
30069;DHT22;16894;49.456;10.644;2023-02-01T18:20:15;5.10;99.90
30069;DHT22;16894;49.456;10.644;2023-02-01T18:22:42;5.20;99.90